createdAt,value
2023-11-07T00:00:23.229Z,10.03
2023-11-07T00:02:54.608Z,9.89
2023-11-07T00:05:22.983Z,9.68
2023-11-07T00:07:51.074Z,9.44
2023-11-07T00:10:19.259Z,9.51
2023-11-07T00:12:49.552Z,9.85
2023-11-07T00:15:19.172Z,9.97
2023-11-07T00:17:49.808Z,10.03
2023-11-07T00:20:18.450Z,9.92
2023-11-07T00:22:46.487Z,9.91
2023-11-07T00:25:14.374Z,10.06
2023-11-07T00:27:42.396Z,10.11
2023-11-07T00:30:10.953Z,9.98
2023-11-07T00:32:39.737Z,9.58
2023-11-07T00:35:10.163Z,9.33
2023-11-07T00:37:38.203Z,9.23
2023-11-07T00:40:08.364Z,9.43
2023-11-07T00:42:37.078Z,9.51
2023-11-07T00:45:05.474Z,9.57
2023-11-07T00:47:34.328Z,9.57
2023-11-07T00:50:02.458Z,9.60
2023-11-07T00:52:31.647Z,9.73
2023-11-07T00:55:01.239Z,9.81
2023-11-07T00:57:29.147Z,9.87
2023-11-07T00:59:57.260Z,9.92
2023-11-07T01:02:25.256Z,9.88
2023-11-07T01:04:54.213Z,9.82
2023-11-07T01:07:22.093Z,9.79
2023-11-07T01:09:52.376Z,9.75
2023-11-07T01:12:20.500Z,9.77
2023-11-07T01:14:49.125Z,9.77
2023-11-07T01:17:17.453Z,9.74
2023-11-07T01:19:45.507Z,9.77
2023-11-07T01:22:13.340Z,9.77
2023-11-07T01:24:41.543Z,9.73
2023-11-07T01:27:10.913Z,9.77
2023-11-07T01:29:39.147Z,10.05
2023-11-07T01:32:07.610Z,10.19
2023-11-07T01:34:35.739Z,10.09
2023-11-07T01:37:03.789Z,9.88
2023-11-07T01:39:32.023Z,10.11
2023-11-07T01:41:59.950Z,10.15
2023-11-07T01:44:31.468Z,9.99
2023-11-07T01:47:00.582Z,9.85
2023-11-07T01:49:29.490Z,9.87
2023-11-07T01:51:59.104Z,9.74
2023-11-07T01:54:28.314Z,9.70
2023-11-07T01:56:56.349Z,9.73
2023-11-07T01:59:25.248Z,9.58
2023-11-07T02:01:56.857Z,9.51
2023-11-07T02:04:25.995Z,9.54
2023-11-07T02:06:54.166Z,9.54
2023-11-07T02:09:24.016Z,9.64
2023-11-07T02:11:52.053Z,9.74
2023-11-07T02:14:30.295Z,9.68
2023-11-07T02:17:00.221Z,9.62
2023-11-07T02:19:28.262Z,9.61
2023-11-07T02:22:00.286Z,9.60
2023-11-07T02:24:30.303Z,9.54
2023-11-07T02:26:59.581Z,9.68
2023-11-07T02:29:27.969Z,9.67
2023-11-07T02:31:57.554Z,9.57
2023-11-07T02:34:25.579Z,9.58
2023-11-07T02:36:53.993Z,9.57
2023-11-07T02:39:22.619Z,9.64
2023-11-07T02:41:52.084Z,9.65
2023-11-07T02:44:19.966Z,9.64
2023-11-07T02:46:49.361Z,9.68
2023-11-07T02:49:17.668Z,9.62
2023-11-07T02:51:45.709Z,9.77
2023-11-07T02:54:13.872Z,9.54
2023-11-07T02:56:43.746Z,9.47
2023-11-07T02:59:13.047Z,9.47
2023-11-07T03:01:40.917Z,9.46
2023-11-07T03:04:09.172Z,9.44
2023-11-07T03:06:37.373Z,9.47
2023-11-07T03:09:05.994Z,9.48
2023-11-07T03:11:34.068Z,9.51
2023-11-07T03:14:02.318Z,9.52
2023-11-07T03:16:32.044Z,9.52
2023-11-07T03:19:00.218Z,9.54
2023-11-07T03:21:28.196Z,9.52
2023-11-07T03:23:56.284Z,9.52
2023-11-07T03:26:25.262Z,9.52
2023-11-07T03:28:53.306Z,9.55
2023-11-07T03:31:21.498Z,9.55
2023-11-07T03:33:51.096Z,9.57
2023-11-07T03:36:19.122Z,9.87
2023-11-07T03:38:47.165Z,10.40
2023-11-07T03:41:15.259Z,10.19
2023-11-07T03:43:43.469Z,9.92
2023-11-07T03:46:12.325Z,9.84
2023-11-07T03:48:40.636Z,9.68
2023-11-07T03:51:10.229Z,9.68
2023-11-07T03:53:38.286Z,9.62
2023-11-07T03:56:07.195Z,9.65
2023-11-07T03:58:35.253Z,9.62
2023-11-07T04:01:04.305Z,9.64
2023-11-07T04:03:32.484Z,9.50
2023-11-07T04:06:00.631Z,9.44
2023-11-07T04:08:30.084Z,9.36
2023-11-07T04:10:58.133Z,9.97
2023-11-07T04:13:26.083Z,9.94
2023-11-07T04:15:57.444Z,10.03
2023-11-07T04:18:25.910Z,10.09
2023-11-07T04:20:54.256Z,10.11
2023-11-07T04:23:22.128Z,10.01
2023-11-07T04:25:51.697Z,9.97
2023-11-07T04:28:19.608Z,10.08
2023-11-07T04:30:48.048Z,10.05
2023-11-07T04:33:17.082Z,9.91
2023-11-07T04:35:45.670Z,9.84
2023-11-07T04:38:14.438Z,9.61
2023-11-07T04:40:42.618Z,9.33
2023-11-07T04:43:12.040Z,9.24
2023-11-07T04:45:40.245Z,9.20
2023-11-07T04:48:08.433Z,9.06
2023-11-07T04:50:37.909Z,8.96
2023-11-07T04:53:06.161Z,8.96
2023-11-07T04:55:34.308Z,8.90
2023-11-07T04:58:03.339Z,8.88
2023-11-07T05:00:32.551Z,8.80
2023-11-07T05:03:00.947Z,8.82
2023-11-07T05:05:31.707Z,8.80
2023-11-07T05:07:59.890Z,8.78
2023-11-07T05:10:27.777Z,8.71
2023-11-07T05:12:55.946Z,8.65
2023-11-07T05:15:24.057Z,9.09
2023-11-07T05:17:55.551Z,9.19
2023-11-07T05:20:23.820Z,9.46
2023-11-07T05:22:52.029Z,9.64
2023-11-07T05:25:20.243Z,9.52
2023-11-07T05:27:48.099Z,9.52
2023-11-07T05:30:16.223Z,9.46
2023-11-07T05:32:48.094Z,9.52
2023-11-07T05:35:17.915Z,9.55
2023-11-07T05:37:47.002Z,9.58
2023-11-07T05:40:16.782Z,9.62
2023-11-07T05:42:45.299Z,9.57
2023-11-07T05:45:13.959Z,9.62
2023-11-07T05:47:42.670Z,9.57
2023-11-07T05:50:12.704Z,9.62
2023-11-07T05:52:42.293Z,9.50
2023-11-07T05:55:11.654Z,9.67
2023-11-07T05:57:40.598Z,9.50
2023-11-07T06:00:12.344Z,9.40
2023-11-07T06:02:40.523Z,9.40
2023-11-07T06:05:09.211Z,9.48
2023-11-07T06:07:37.350Z,9.40
2023-11-07T06:10:08.870Z,9.37
2023-11-07T06:12:36.817Z,9.27
2023-11-07T06:15:05.448Z,9.30
2023-11-07T06:17:33.772Z,9.30
2023-11-07T06:20:01.793Z,9.05
2023-11-07T06:22:29.728Z,9.09
2023-11-07T06:24:58.038Z,9.15
2023-11-07T06:27:28.035Z,9.15
2023-11-07T06:29:56.151Z,9.12
2023-11-07T06:32:24.341Z,9.07
2023-11-07T06:34:53.169Z,9.09
2023-11-07T06:37:21.213Z,9.15
2023-11-07T06:39:50.709Z,9.13
2023-11-07T06:42:18.919Z,9.07
2023-11-07T06:44:48.495Z,9.09
2023-11-07T06:47:16.403Z,9.10
2023-11-07T06:49:44.671Z,9.19
2023-11-07T06:52:12.757Z,9.29
2023-11-07T06:54:40.751Z,9.29
2023-11-07T06:57:10.047Z,9.47
2023-11-07T06:59:37.768Z,9.48
2023-11-07T07:02:07.618Z,9.43
2023-11-07T07:04:35.887Z,9.60
2023-11-07T07:07:03.960Z,9.51
2023-11-07T07:09:32.121Z,9.61
2023-11-07T07:12:00.310Z,9.62
2023-11-07T07:14:28.199Z,9.57
2023-11-07T07:16:56.429Z,9.55
2023-11-07T07:19:26.427Z,9.62
2023-11-07T07:21:55.230Z,9.62
2023-11-07T07:24:28.976Z,9.57
2023-11-07T07:26:59.491Z,9.47
2023-11-07T07:29:27.975Z,9.60
2023-11-07T07:31:57.704Z,9.78
2023-11-07T07:34:27.801Z,9.87
2023-11-07T07:36:56.716Z,9.60
2023-11-07T07:39:31.938Z,9.71
2023-11-07T07:42:01.520Z,10.35
2023-11-07T07:44:30.987Z,10.69
2023-11-07T07:46:58.985Z,10.59
2023-11-07T07:49:31.553Z,10.90
2023-11-07T07:52:01.293Z,11.46
2023-11-07T07:54:52.494Z,11.49
2023-11-07T07:57:19.052Z,10.93
2023-11-07T07:59:47.488Z,10.91
2023-11-07T08:02:17.072Z,10.80
2023-11-07T08:04:48.015Z,10.69
2023-11-07T08:07:18.299Z,11.12
2023-11-07T08:09:46.548Z,10.59
2023-11-07T08:12:14.843Z,10.64
2023-11-07T08:14:45.555Z,11.24
2023-11-07T08:17:13.552Z,11.20
2023-11-07T08:19:41.418Z,12.17
2023-11-07T08:22:10.984Z,12.57
2023-11-07T08:24:39.692Z,12.64
2023-11-07T08:27:07.809Z,12.19
2023-11-07T08:29:35.694Z,11.58
2023-11-07T08:32:05.579Z,11.48
2023-11-07T08:34:34.164Z,11.66
2023-11-07T08:37:09.009Z,12.67
2023-11-07T08:39:42.475Z,12.91
2023-11-07T08:42:11.901Z,14.08
2023-11-07T08:44:41.470Z,14.36
2023-11-07T08:47:09.355Z,14.01
2023-11-07T08:49:39.097Z,13.35
2023-11-07T08:52:07.558Z,12.89
2023-11-07T08:54:37.675Z,12.58
2023-11-07T08:57:08.125Z,12.41
2023-11-07T08:59:37.836Z,12.38
2023-11-07T09:02:06.190Z,11.97
2023-11-07T09:04:34.455Z,11.83
2023-11-07T09:07:04.087Z,11.54
2023-11-07T09:09:32.283Z,11.46
2023-11-07T09:12:00.247Z,11.38
2023-11-07T09:14:30.343Z,11.27
2023-11-07T09:16:58.394Z,11.21
2023-11-07T09:19:26.662Z,11.06
2023-11-07T09:21:54.672Z,10.94
2023-11-07T09:24:22.657Z,10.97
2023-11-07T09:26:50.933Z,10.94
2023-11-07T09:29:18.966Z,11.04
2023-11-07T09:31:49.764Z,11.01
2023-11-07T09:34:17.990Z,11.01
2023-11-07T09:36:46.959Z,11.03
2023-11-07T09:39:15.191Z,11.08
2023-11-07T09:41:44.436Z,11.11
2023-11-07T09:44:12.923Z,11.36
2023-11-07T09:46:42.283Z,11.22
2023-11-07T09:49:13.884Z,11.12
2023-11-07T09:51:42.150Z,11.22
2023-11-07T09:54:10.150Z,11.20
2023-11-07T09:56:41.500Z,11.04
2023-11-07T09:59:23.869Z,11.15
2023-11-07T10:01:52.379Z,11.22
2023-11-07T10:04:24.276Z,11.21
2023-11-07T10:06:52.466Z,11.06
2023-11-07T10:09:22.455Z,11.14
2023-11-07T10:11:51.901Z,11.22
2023-11-07T10:14:21.340Z,11.27
2023-11-07T10:16:52.686Z,11.42
2023-11-07T10:19:23.693Z,11.28
2023-11-07T10:21:52.967Z,11.45
2023-11-07T10:24:21.612Z,11.48
2023-11-07T10:26:54.883Z,11.43
2023-11-07T10:29:31.938Z,11.48
2023-11-07T10:32:02.203Z,11.57
2023-11-07T10:34:32.744Z,11.76
2023-11-07T10:37:01.514Z,11.85
2023-11-07T10:39:31.816Z,11.96
2023-11-07T10:42:18.627Z,11.87
2023-11-07T10:44:49.802Z,11.86
2023-11-07T10:47:21.056Z,11.75
2023-11-07T10:49:52.977Z,11.68
2023-11-07T10:52:21.646Z,11.75
2023-11-07T10:54:49.992Z,12.14
2023-11-07T10:57:23.890Z,12.51
2023-11-07T10:59:57.469Z,12.17
2023-11-07T11:02:28.672Z,11.90
2023-11-07T11:05:01.865Z,11.93
2023-11-07T11:07:31.022Z,12.00
2023-11-07T11:10:02.259Z,11.57
2023-11-07T11:12:30.650Z,11.58
2023-11-07T11:14:58.732Z,11.43
2023-11-07T11:17:35.084Z,11.48
2023-11-07T11:20:12.754Z,11.59
2023-11-07T11:22:46.984Z,11.52
2023-11-07T11:25:25.540Z,11.49
2023-11-07T11:28:00.971Z,11.61
2023-11-07T11:30:29.872Z,11.63
2023-11-07T11:33:08.802Z,11.55
2023-11-07T11:35:41.297Z,11.72
2023-11-07T11:38:12.103Z,11.76
2023-11-07T11:40:58.533Z,11.76
2023-11-07T11:43:28.651Z,11.73
2023-11-07T11:46:00.054Z,11.49
2023-11-07T11:49:06.812Z,11.42
2023-11-07T11:51:38.545Z,11.36
2023-11-07T11:54:08.086Z,11.42
2023-11-07T11:56:36.600Z,11.45
2023-11-07T11:59:10.567Z,11.54
2023-11-07T12:01:53.588Z,11.63
2023-11-07T12:04:30.110Z,11.62
2023-11-07T12:07:26.888Z,11.68
2023-11-07T12:09:59.190Z,11.63
2023-11-07T12:12:27.463Z,11.78
2023-11-07T12:14:58.039Z,11.72
2023-11-07T12:17:28.588Z,11.73
2023-11-07T12:20:15.646Z,11.75
2023-11-07T12:22:47.741Z,11.78
2023-11-07T12:25:18.682Z,11.79
2023-11-07T12:28:03.687Z,11.73
2023-11-07T12:30:32.535Z,11.51
2023-11-07T12:33:02.175Z,11.21
2023-11-07T12:35:30.969Z,11.08
2023-11-07T12:38:04.608Z,11.06
2023-11-07T12:40:34.396Z,11.17
2023-11-07T12:43:02.572Z,11.18
2023-11-07T12:45:32.532Z,11.21
2023-11-07T12:48:05.324Z,11.25
2023-11-07T12:50:34.923Z,11.51
2023-11-07T12:53:07.241Z,11.57
2023-11-07T12:55:36.989Z,11.46
2023-11-07T12:58:06.557Z,11.30
2023-11-07T13:00:49.396Z,11.39
2023-11-07T13:03:23.544Z,11.48
2023-11-07T13:05:59.463Z,11.45
2023-11-07T13:08:29.956Z,11.25
2023-11-07T13:11:15.429Z,11.18
2023-11-07T13:13:44.465Z,11.14
2023-11-07T13:16:12.552Z,11.08
2023-11-07T13:18:46.282Z,11.07
2023-11-07T13:21:14.809Z,11.10
2023-11-07T13:23:44.499Z,10.99
2023-11-07T13:26:12.799Z,11.00
2023-11-07T13:28:42.163Z,11.11
2023-11-07T13:31:12.029Z,11.14
2023-11-07T13:33:42.151Z,11.24
2023-11-07T13:36:10.658Z,11.17
2023-11-07T13:38:38.657Z,11.08
2023-11-07T13:41:08.951Z,11.11
2023-11-07T13:43:36.877Z,11.27
2023-11-07T13:46:06.135Z,11.36
2023-11-07T13:48:35.134Z,11.04
2023-11-07T13:51:03.761Z,10.66
2023-11-07T13:53:32.949Z,10.49
2023-11-07T13:56:01.376Z,10.46
2023-11-07T13:58:31.100Z,10.40
2023-11-07T14:00:59.056Z,10.33
2023-11-07T14:03:28.898Z,10.33
2023-11-07T14:05:57.063Z,10.32
2023-11-07T14:08:25.186Z,10.36
2023-11-07T14:10:53.906Z,10.23
2023-11-07T14:13:21.852Z,10.18
2023-11-07T14:15:53.110Z,10.22
2023-11-07T14:18:27.098Z,10.09
2023-11-07T14:20:59.486Z,10.03
2023-11-07T14:23:29.495Z,10.02
2023-11-07T14:25:59.591Z,10.01
2023-11-07T14:28:28.067Z,9.98
2023-11-07T14:31:00.471Z,10.01
2023-11-07T14:33:31.857Z,10.01
2023-11-07T14:36:00.645Z,10.01
2023-11-07T14:38:30.420Z,10.13
2023-11-07T14:40:58.962Z,10.29
2023-11-07T14:43:26.886Z,10.22
2023-11-07T14:45:55.346Z,10.22
2023-11-07T14:48:24.783Z,10.20
2023-11-07T14:50:54.522Z,10.05
2023-11-07T14:53:24.575Z,9.95
2023-11-07T14:55:53.709Z,9.82
2023-11-07T14:58:23.245Z,9.73
2023-11-07T15:00:52.614Z,9.73
2023-11-07T15:03:20.864Z,9.68
2023-11-07T15:05:51.439Z,9.71
2023-11-07T15:08:20.944Z,9.67
2023-11-07T15:10:48.996Z,9.64
2023-11-07T15:13:16.867Z,9.67
2023-11-07T15:15:45.222Z,9.61
2023-11-07T15:18:13.265Z,9.61
2023-11-07T15:20:43.795Z,9.64
2023-11-07T15:23:13.359Z,9.62
2023-11-07T15:25:41.769Z,9.57
2023-11-07T15:30:56.704Z,9.51
2023-11-07T15:33:25.110Z,9.48
2023-11-07T15:35:53.151Z,9.41
2023-11-07T15:38:22.634Z,9.40
2023-11-07T15:40:50.751Z,9.37
2023-11-07T15:43:18.667Z,9.31
2023-11-07T15:45:46.552Z,9.29
2023-11-07T15:48:14.788Z,9.29
2023-11-07T15:50:43.179Z,9.38
2023-11-07T15:53:12.426Z,9.36
2023-11-07T15:55:42.815Z,9.36
2023-11-07T15:58:12.052Z,9.31
2023-11-07T16:00:40.260Z,9.26
2023-11-07T16:03:08.361Z,9.22
2023-11-07T16:05:38.849Z,9.19
2023-11-07T16:08:08.674Z,9.20
2023-11-07T16:10:37.873Z,9.13
2023-11-07T16:13:10.625Z,9.10
2023-11-07T16:15:39.749Z,9.07
2023-11-07T16:18:07.817Z,9.03
2023-11-07T16:20:36.485Z,8.97
2023-11-07T16:23:05.352Z,8.96
2023-11-07T16:25:33.489Z,8.97
2023-11-07T16:28:03.985Z,8.92
2023-11-07T16:30:35.268Z,8.90
2023-11-07T16:33:03.455Z,8.89
2023-11-07T16:35:31.406Z,8.88
2023-11-07T16:37:59.560Z,8.92
2023-11-07T16:40:27.423Z,8.93
2023-11-07T16:42:55.734Z,8.88
2023-11-07T16:45:24.481Z,8.88
2023-11-07T16:47:54.080Z,8.86
2023-11-07T16:50:22.682Z,8.76
2023-11-07T16:52:51.105Z,8.76
2023-11-07T16:55:19.999Z,8.66
2023-11-07T16:57:48.312Z,8.65
2023-11-07T17:00:19.724Z,8.65
2023-11-07T17:02:49.255Z,8.64
2023-11-07T17:05:19.829Z,8.69
2023-11-07T17:07:47.834Z,8.71
2023-11-07T17:10:16.613Z,8.69
2023-11-07T17:12:44.908Z,8.65
2023-11-07T17:15:13.870Z,8.71
2023-11-07T17:17:45.508Z,8.69
2023-11-07T17:20:14.543Z,8.62
2023-11-07T17:22:44.096Z,8.59
2023-11-07T17:25:11.803Z,8.55
2023-11-07T17:27:39.987Z,8.51
2023-11-07T17:30:09.742Z,8.44
2023-11-07T17:32:38.918Z,8.38
2023-11-07T17:35:07.516Z,8.40
2023-11-07T17:37:35.773Z,8.38
2023-11-07T17:40:07.650Z,8.35
2023-11-07T17:42:35.798Z,8.33
2023-11-07T17:45:05.648Z,8.34
2023-11-07T17:47:34.467Z,8.31
2023-11-07T17:50:03.035Z,8.34
2023-11-07T17:52:31.413Z,8.28
2023-11-07T17:55:00.330Z,8.21
2023-11-07T17:57:30.626Z,8.17
2023-11-07T17:59:59.201Z,8.14
2023-11-07T18:02:27.683Z,8.07
2023-11-07T18:04:55.867Z,8.06
2023-11-07T18:07:24.201Z,8.01
2023-11-07T18:09:52.470Z,7.93
2023-11-07T18:12:21.258Z,7.86
2023-11-07T18:14:50.869Z,7.89
2023-11-07T18:17:20.157Z,7.93
2023-11-07T18:19:49.086Z,7.94
2023-11-07T18:22:17.363Z,7.96
2023-11-07T18:24:45.786Z,7.94
2023-11-07T18:27:14.298Z,7.96
2023-11-07T18:29:43.412Z,7.96
2023-11-07T18:32:13.157Z,7.98
2023-11-07T18:34:41.588Z,7.93
2023-11-07T18:37:10.628Z,7.91
2023-11-07T18:39:40.518Z,7.89
2023-11-07T18:42:09.372Z,7.84
2023-11-07T18:44:41.850Z,7.83
2023-11-07T18:47:10.187Z,7.80
2023-11-07T18:49:39.827Z,7.83
2023-11-07T18:52:07.832Z,7.77
2023-11-07T18:54:36.154Z,7.83
2023-11-07T18:57:05.369Z,7.80
2023-11-07T18:59:37.503Z,7.79
2023-11-07T19:02:07.728Z,7.86
2023-11-07T19:04:37.984Z,7.86
2023-11-07T19:07:09.061Z,7.93
2023-11-07T19:09:37.459Z,7.90
2023-11-07T19:12:05.865Z,7.86
2023-11-07T19:14:34.646Z,7.89
2023-11-07T19:17:02.907Z,7.90
2023-11-07T19:19:30.948Z,7.97
2023-11-07T19:21:59.867Z,7.94
2023-11-07T19:24:29.619Z,7.93
2023-11-07T19:26:59.140Z,7.94
2023-11-07T19:29:29.025Z,8.04
2023-11-07T19:31:57.013Z,8.03
2023-11-07T19:34:25.714Z,8.04
2023-11-07T19:36:56.399Z,8.06
2023-11-07T19:39:26.759Z,8.07
2023-11-07T19:42:02.312Z,8.04
2023-11-07T19:44:30.648Z,8.00
2023-11-07T19:46:58.910Z,7.98
2023-11-07T19:49:28.926Z,7.97
2023-11-07T19:51:59.018Z,7.91
2023-11-07T19:54:27.995Z,7.94
2023-11-07T19:56:57.495Z,7.91
2023-11-07T19:59:25.371Z,7.94
2023-11-07T20:01:53.659Z,7.96
2023-11-07T20:04:22.918Z,7.89
2023-11-07T20:06:51.381Z,7.90
2023-11-07T20:09:19.878Z,7.90
2023-11-07T20:11:50.024Z,7.89
2023-11-07T20:14:19.806Z,7.90
2023-11-07T20:16:48.340Z,7.94
2023-11-07T20:19:33.108Z,7.86
2023-11-07T20:22:01.082Z,7.89
2023-11-07T20:24:29.040Z,7.84
2023-11-07T20:26:59.222Z,7.83
2023-11-07T20:29:29.603Z,7.84
2023-11-07T20:31:59.809Z,7.79
2023-11-07T20:34:49.469Z,7.72
2023-11-07T20:37:17.594Z,7.72
2023-11-07T20:39:45.506Z,7.70
2023-11-07T20:42:13.760Z,7.70
2023-11-07T20:47:29.963Z,7.72
2023-11-07T20:49:59.065Z,7.75
2023-11-07T20:52:28.898Z,7.76
2023-11-07T20:54:57.195Z,7.79
2023-11-07T20:57:25.866Z,7.77
2023-11-07T20:59:55.347Z,7.79
2023-11-07T21:02:24.219Z,7.79
2023-11-07T21:04:55.334Z,7.75
2023-11-07T21:07:23.901Z,7.79
2023-11-07T21:09:52.324Z,7.77
2023-11-07T21:12:21.108Z,7.82
2023-11-07T21:14:51.397Z,7.82
2023-11-07T21:17:20.759Z,7.87
2023-11-07T21:19:48.953Z,7.79
2023-11-07T21:22:16.915Z,7.80
2023-11-07T21:24:44.897Z,7.76
2023-11-07T21:27:14.174Z,7.86
2023-11-07T21:29:42.357Z,7.89
2023-11-07T21:32:11.120Z,7.93
2023-11-07T21:34:42.027Z,7.97
2023-11-07T21:37:11.616Z,7.97
2023-11-07T21:39:40.716Z,7.96
2023-11-07T21:42:10.909Z,8.04
2023-11-07T21:44:38.932Z,8.06
2023-11-07T21:47:06.923Z,8.06
2023-11-07T21:49:34.951Z,8.01
2023-11-07T21:52:05.249Z,8.03
2023-11-07T21:54:33.272Z,7.98
2023-11-07T21:57:01.787Z,7.97
2023-11-07T21:59:29.882Z,7.93
2023-11-07T22:01:57.838Z,7.91
2023-11-07T22:04:25.860Z,7.94
2023-11-07T22:06:55.231Z,7.89
2023-11-07T22:09:25.075Z,7.83
2023-11-07T22:11:53.306Z,7.79
2023-11-07T22:14:21.278Z,7.80
2023-11-07T22:16:49.836Z,7.79
2023-11-07T22:19:17.761Z,7.80
2023-11-07T22:21:45.715Z,7.90
2023-11-07T22:24:14.057Z,7.90
2023-11-07T22:26:44.258Z,7.94
2023-11-07T22:29:12.201Z,7.97
2023-11-07T22:31:40.531Z,8.08
2023-11-07T22:34:08.543Z,8.06
2023-11-07T22:36:36.739Z,8.08
2023-11-07T22:39:06.243Z,8.11
2023-11-07T22:41:34.214Z,8.14
2023-11-07T22:44:03.629Z,8.10
2023-11-07T22:46:31.572Z,8.16
2023-11-07T22:48:59.774Z,8.17
2023-11-07T22:51:27.955Z,8.14
2023-11-07T22:53:55.863Z,8.08
2023-11-07T22:56:24.151Z,8.10
2023-11-07T22:58:52.090Z,8.10
2023-11-07T23:01:21.913Z,8.07
2023-11-07T23:03:49.915Z,8.08
2023-11-07T23:06:18.122Z,8.04
2023-11-07T23:08:46.075Z,7.97
2023-11-07T23:11:14.137Z,8.01
2023-11-07T23:13:42.084Z,7.91
2023-11-07T23:16:10.261Z,7.87
2023-11-07T23:18:42.246Z,7.91
2023-11-07T23:21:12.958Z,7.90
2023-11-07T23:23:40.866Z,7.86
2023-11-07T23:26:09.864Z,7.87
2023-11-07T23:28:38.055Z,7.80
2023-11-07T23:31:06.137Z,7.75
2023-11-07T23:33:34.124Z,7.76
2023-11-07T23:36:04.038Z,7.77
2023-11-07T23:38:32.425Z,7.82
2023-11-07T23:41:00.294Z,7.79
2023-11-07T23:43:28.188Z,7.73
2023-11-07T23:45:56.090Z,7.75
2023-11-07T23:48:24.641Z,7.73
2023-11-07T23:50:53.255Z,7.80
2023-11-07T23:53:22.697Z,7.94
2023-11-07T23:55:50.660Z,8.01
2023-11-07T23:58:37.018Z,8.08
